createdAt,value
2023-02-23T00:00:00.877Z,23.4
2023-02-23T00:05:53.932Z,25
2023-02-23T00:11:47.521Z,26.8
2023-02-23T00:17:39.071Z,24.4
2023-02-23T00:23:16.082Z,23.9
2023-02-23T00:29:11.552Z,25.8
2023-02-23T00:35:07.030Z,27.3
2023-02-23T00:40:59.380Z,24
2023-02-23T00:46:53.951Z,24.8
2023-02-23T00:52:46.729Z,24.2
2023-02-23T00:58:39.529Z,23.9
2023-02-23T01:04:32.729Z,23.6
2023-02-23T01:10:25.582Z,25.3
2023-02-23T01:16:18.744Z,27
2023-02-23T01:22:12.674Z,24.2
2023-02-23T01:27:50.144Z,24.5
2023-02-23T01:33:45.259Z,24.4
2023-02-23T01:39:39.088Z,24
2023-02-23T01:45:30.947Z,23.4
2023-02-23T01:51:08.554Z,24.7
2023-02-23T01:57:02.587Z,26.5
2023-02-23T02:02:39.632Z,25.8
2023-02-23T02:08:32.411Z,23.9
2023-02-23T02:14:26.437Z,24.6
2023-02-23T02:20:03.173Z,23.9
2023-02-23T02:25:41.417Z,23.7
2023-02-23T02:31:35.878Z,23.7
2023-02-23T02:37:28.753Z,25.6
2023-02-23T02:43:21.712Z,22.8
2023-02-23T02:49:00.303Z,25.4
2023-02-23T02:54:37.751Z,27.1
2023-02-23T03:00:14.712Z,24.2
2023-02-23T03:05:53.321Z,23.9
2023-02-23T03:11:13.954Z,24.3
2023-02-23T03:16:51.665Z,23.9
2023-02-23T03:22:30.341Z,23.5
2023-02-23T03:28:07.329Z,24.4
2023-02-23T03:33:28.472Z,26.2
2023-02-23T03:38:35.337Z,27.4
2023-02-23T03:44:13.589Z,23.9
2023-02-23T03:49:51.263Z,24.6
2023-02-23T03:55:45.995Z,24.2
2023-02-23T04:01:23.599Z,23.9
2023-02-23T04:07:00.105Z,23.3
2023-02-23T04:12:23.677Z,24.8
2023-02-23T04:17:45.025Z,26.5
2023-02-23T04:23:21.612Z,26.2
2023-02-23T04:28:44.183Z,23.8
2023-02-23T04:34:38.275Z,25.2
2023-02-23T04:40:14.596Z,26.9
2023-02-23T04:45:53.058Z,24.4
2023-02-23T04:51:15.349Z,23.9
2023-02-23T04:57:10.855Z,24.5
2023-02-23T05:03:07.165Z,24
2023-02-23T05:08:59.197Z,23.6
2023-02-23T05:14:50.917Z,24.3
2023-02-23T05:20:45.259Z,26.1
2023-02-23T05:26:38.326Z,22.7
2023-02-23T05:32:31.986Z,25.3
2023-02-23T05:38:26.001Z,27.1
2023-02-23T05:44:18.440Z,24.3
2023-02-23T05:49:55.725Z,24.6
2023-02-23T05:55:34.355Z,24.4
2023-02-23T06:01:11.033Z,24.1
2023-02-23T06:07:03.580Z,23.5
2023-02-23T06:12:57.974Z,24.6
2023-02-23T06:18:49.808Z,26.4
2023-02-23T06:24:41.891Z,26
2023-02-23T06:30:37.242Z,23.9
2023-02-23T06:36:30.449Z,24.6
2023-02-23T06:42:22.165Z,23.9
2023-02-23T06:48:15.473Z,23.7
2023-02-23T06:53:52.409Z,23.9
2023-02-23T06:59:47.229Z,25.8
2023-02-23T07:05:41.502Z,27.4
2023-02-23T07:11:34.566Z,23.8
2023-02-23T07:17:31.047Z,25.2
2023-02-23T07:23:24.511Z,27
2023-02-23T07:29:16.912Z,24.1
2023-02-23T07:35:10.636Z,24.5
2023-02-23T07:41:05.112Z,24.4
2023-02-23T07:46:58.286Z,24.1
2023-02-23T07:52:51.283Z,23.4
2023-02-23T07:58:46.528Z,24.9
2023-02-23T08:04:39.626Z,26.9
2023-02-23T08:10:30.909Z,24.1
2023-02-23T08:16:26.983Z,23.8
2023-02-23T08:22:19.235Z,25.3
2023-02-23T08:28:23.583Z,27.4
2023-02-23T08:34:18.976Z,23.9
2023-02-23T08:40:11.443Z,23.8
2023-02-23T08:46:04.072Z,25.7
2023-02-23T08:51:57.802Z,26
2023-02-23T08:57:34.246Z,23.9
2023-02-23T09:03:25.856Z,23.8
2023-02-23T09:09:19.916Z,26.1
2023-02-23T09:15:12.353Z,24.8
2023-02-23T09:21:05.137Z,23.8
2023-02-23T09:26:45.819Z,24.3
2023-02-23T09:32:24.079Z,26.6
2023-02-23T09:38:00.992Z,24.4
2023-02-23T09:43:50.893Z,23.8
2023-02-23T09:49:43.599Z,24.5
2023-02-23T09:55:36.686Z,26.9
2023-02-23T10:01:30.713Z,24.2
2023-02-23T10:07:10.235Z,23.8
2023-02-23T10:13:05.520Z,24.9
2023-02-23T10:19:01.736Z,27.4
2023-02-23T10:24:54.596Z,24.1
2023-02-23T10:30:46.603Z,23.8
2023-02-23T10:36:31.469Z,25.1
2023-02-23T10:42:24.474Z,27.1
2023-02-23T10:48:08.066Z,24
2023-02-23T10:53:49.520Z,23.8
2023-02-23T10:59:45.308Z,24.9
2023-02-23T11:06:02.872Z,27.3
2023-02-23T11:12:13.185Z,24
2023-02-23T11:18:19.167Z,23.7
2023-02-23T11:24:20.765Z,23.4
2023-02-23T11:30:15.082Z,23.1
2023-02-23T11:36:08.241Z,22.7
2023-02-23T11:42:00.796Z,22.3
2023-02-23T11:47:59.316Z,21.9
2023-02-23T11:53:51.714Z,21.5
2023-02-23T11:59:27.965Z,21.1
2023-02-23T12:05:23.685Z,20.8
2023-02-23T12:11:01.364Z,20.4
2023-02-23T12:16:55.289Z,20.1
2023-02-23T12:22:48.081Z,19.7
2023-02-23T12:28:52.582Z,19.4
2023-02-23T12:34:45.573Z,19.1
2023-02-23T12:40:39.304Z,18.8
2023-02-23T12:46:31.842Z,18.6
2023-02-23T12:52:09.502Z,18.3
2023-02-23T12:58:02.696Z,18.1
2023-02-23T13:03:57.916Z,17.9
2023-02-23T13:09:57.685Z,17.7
2023-02-23T13:15:51.801Z,17.5
2023-02-23T13:21:29.121Z,17.3
2023-02-23T13:27:06.190Z,17.1
2023-02-23T13:32:48.832Z,16.9
2023-02-23T13:38:48.618Z,16.8
2023-02-23T13:44:53.321Z,16.7
2023-02-23T13:50:54.477Z,16.6
2023-02-23T13:56:56.383Z,16.4
2023-02-23T14:02:50.504Z,16.3
2023-02-23T14:08:14.141Z,16.2
2023-02-23T14:14:10.928Z,16.1
2023-02-23T14:20:04.500Z,15.9
2023-02-23T14:26:07.130Z,15.9
2023-02-23T14:32:17.910Z,15.8
2023-02-23T14:38:05.822Z,15.7
2023-02-23T14:44:14.498Z,15.6
2023-02-23T14:50:14.482Z,15.5
2023-02-23T14:56:03.739Z,15.4
2023-02-23T15:02:06.633Z,15.4
2023-02-23T15:08:13.952Z,15.3
2023-02-23T15:14:10.508Z,15.3
2023-02-23T15:20:15.708Z,15.2
2023-02-23T15:26:23.679Z,15.1
2023-02-23T15:32:18.037Z,15.1
2023-02-23T15:38:44.399Z,15
2023-02-23T15:44:44.287Z,14.9
2023-02-23T15:50:52.711Z,14.9
2023-02-23T15:56:30.714Z,14.9
2023-02-23T16:02:32.570Z,14.9
2023-02-23T16:08:33.396Z,14.8
2023-02-23T16:14:27.272Z,14.8
2023-02-23T16:20:30.139Z,14.8
2023-02-23T16:26:30.767Z,14.7
2023-02-23T16:31:53.319Z,14.7
2023-02-23T16:37:31.656Z,14.7
2023-02-23T16:43:24.033Z,14.6
2023-02-23T16:49:26.268Z,14.6
2023-02-23T16:55:23.879Z,14.6
2023-02-23T17:01:18.904Z,14.6
2023-02-23T17:07:07.178Z,14.6
2023-02-23T17:13:07.767Z,14.5
2023-02-23T17:19:00.514Z,14.5
2023-02-23T17:24:53.938Z,14.4
2023-02-23T17:30:47.864Z,14.4
2023-02-23T17:36:44.579Z,14.4
2023-02-23T17:42:37.946Z,14.4
2023-02-23T17:48:32.285Z,14.4
2023-02-23T17:54:25.291Z,14.4
2023-02-23T18:00:19.996Z,14.4
2023-02-23T18:06:14.848Z,14.4
2023-02-23T18:11:51.584Z,14.3
2023-02-23T18:17:45.198Z,14.3
2023-02-23T18:23:40.703Z,14.3
2023-02-23T18:29:16.751Z,14.3
2023-02-23T18:35:12.298Z,14.3
2023-02-23T18:41:06.396Z,14.3
2023-02-23T18:46:42.754Z,14.3
2023-02-23T18:52:21.001Z,14.3
2023-02-23T18:58:16.085Z,14.3
2023-02-23T19:04:09.916Z,14.3
2023-02-23T19:09:49.188Z,14.3
2023-02-23T19:15:56.330Z,14.3
2023-02-23T19:21:49.313Z,14.3
2023-02-23T19:27:26.706Z,14.2
2023-02-23T19:33:22.641Z,14.2
2023-02-23T19:39:14.592Z,14.3
2023-02-23T19:45:07.594Z,14.2
2023-02-23T19:51:01.045Z,14.2
2023-02-23T19:56:52.164Z,14.2
2023-02-23T20:02:45.759Z,14.2
2023-02-23T20:08:39.724Z,14.2
2023-02-23T20:14:32.005Z,14.2
2023-02-23T20:20:25.442Z,14.2
2023-02-23T20:26:18.013Z,14.1
2023-02-23T20:32:12.147Z,14.1
2023-02-23T20:38:05.757Z,14.1
2023-02-23T20:44:00.127Z,19.6
2023-02-23T20:49:51.913Z,22.9
2023-02-23T20:55:30.919Z,24.9
2023-02-23T21:01:09.108Z,26.2
2023-02-23T21:07:03.336Z,27.1
2023-02-23T21:12:56.733Z,23.9
2023-02-23T21:18:34.350Z,26.6
2023-02-23T21:24:29.264Z,24.9
2023-02-23T21:29:51.257Z,26.1
2023-02-23T21:35:48.923Z,27.1
2023-02-23T21:41:41.312Z,24.4
2023-02-23T21:47:35.075Z,26.5
2023-02-23T21:53:28.501Z,24.3
2023-02-23T21:59:28.013Z,24.4
2023-02-23T22:05:21.900Z,26.4
2023-02-23T22:10:58.795Z,24.2
2023-02-23T22:16:50.798Z,23.4
2023-02-23T22:22:45.132Z,25.6
2023-02-23T22:28:37.920Z,27
2023-02-23T22:34:31.471Z,23.6
2023-02-23T22:40:08.571Z,24.8
2023-02-23T22:46:01.960Z,26.6
2023-02-23T22:52:38.699Z,24.2
2023-02-23T22:58:16.249Z,23.7
2023-02-23T23:04:09.521Z,25.3
2023-02-23T23:10:03.107Z,27.4
2023-02-23T23:16:07.443Z,23.8
2023-02-23T23:22:09.421Z,23.7
2023-02-23T23:28:00.841Z,25.8
2023-02-23T23:33:56.035Z,25.9
2023-02-23T23:39:49.070Z,23.8
2023-02-23T23:45:40.932Z,23.8
2023-02-23T23:51:34.732Z,25.9
2023-02-23T23:57:28.128Z,25.2
